Time;durP1;ratioP1;P1;durP2;ratioP2;P2;SDS_P1;SDS_P2;PMS_P1;PMS_P2;Temp;Humidity;BMP_temperature;BMP_pressure;BME280_temperature;BME280_humidity;BME280_pressure;Samples;Min_cycle;Max_cycle;Signal;HPM_P1;HPM_P2
2022/04/08 00:02:12;;;;;;;1.00;1.00;;;17.70;63.70;;;;;;5000617;28;44017;-79
2022/04/08 00:04:52;;;;;;;0.97;0.97;;;17.70;63.40;;;;;;4987323;28;43463;-79
2022/04/08 00:07:19;;;;;;;1.10;1.10;;;17.70;63.30;;;;;;5007489;28;43938;-79
2022/04/08 00:09:47;;;;;;;0.97;0.97;;;17.60;63.30;;;;;;5006732;28;43921;-79
2022/04/08 00:12:16;;;;;;;1.20;1.20;;;17.60;63.50;;;;;;5007367;28;44277;-79
2022/04/08 00:14:44;;;;;;;1.30;1.20;;;17.50;63.70;;;;;;5006940;28;43959;-79
2022/04/08 00:17:12;;;;;;;0.90;0.90;;;17.50;63.90;;;;;;4987754;28;44136;-79
2022/04/08 00:19:40;;;;;;;1.10;1.10;;;17.40;64.00;;;;;;5006708;28;44186;-79
2022/04/08 00:22:08;;;;;;;1.07;1.07;;;17.40;64.10;;;;;;4987369;28;45019;-79
2022/04/08 00:24:36;;;;;;;0.83;0.83;;;17.40;64.20;;;;;;4988732;28;43974;-80
2022/04/08 00:27:04;;;;;;;1.00;1.00;;;17.40;64.30;;;;;;5006991;28;43445;-79
2022/04/08 00:29:33;;;;;;;1.10;1.10;;;17.30;64.20;;;;;;5006729;28;44951;-79
2022/04/08 00:32:01;;;;;;;1.23;0.97;;;17.30;64.40;;;;;;5006804;28;43820;-79
2022/04/08 00:34:29;;;;;;;1.10;1.10;;;17.40;64.70;;;;;;5006357;28;43985;-79
2022/04/08 00:36:57;;;;;;;1.17;1.17;;;17.50;64.50;;;;;;5006829;28;43997;-79
2022/04/08 00:39:25;;;;;;;1.00;1.00;;;17.70;64.00;;;;;;4988587;28;46598;-79
2022/04/08 00:41:53;;;;;;;1.20;0.97;;;17.90;63.30;;;;;;5006403;28;43982;-79
2022/04/08 00:44:22;;;;;;;1.07;1.07;;;18.10;62.90;;;;;;4987579;28;43949;-79
2022/04/08 00:46:51;;;;;;;0.90;0.90;;;18.20;62.70;;;;;;5006909;28;43432;-79
2022/04/08 00:49:19;;;;;;;0.90;0.90;;;18.10;62.50;;;;;;5006322;28;43988;-79
2022/04/08 00:51:47;;;;;;;0.90;0.90;;;18.00;62.50;;;;;;5006371;28;44179;-80
2022/04/08 00:54:15;;;;;;;1.00;1.00;;;17.90;62.50;;;;;;5006757;28;44025;-78
2022/04/08 00:56:44;;;;;;;1.00;1.00;;;17.80;62.80;;;;;;5006442;28;43819;-79
2022/04/08 00:59:12;;;;;;;0.80;0.80;;;17.70;63.00;;;;;;5006463;28;44256;-79
2022/04/08 01:01:40;;;;;;;1.00;1.00;;;17.60;63.20;;;;;;5007317;28;44119;-80
2022/04/08 01:04:09;;;;;;;0.80;0.80;;;17.50;63.40;;;;;;4991167;28;43520;-80
2022/04/08 01:06:37;;;;;;;1.13;1.00;;;17.50;63.60;;;;;;5010575;28;44062;-79
2022/04/08 01:09:05;;;;;;;0.80;0.80;;;17.40;63.70;;;;;;5009714;28;44004;-80
2022/04/08 01:11:33;;;;;;;1.00;1.00;;;17.40;64.10;;;;;;5009803;28;44135;-80
2022/04/08 01:14:08;;;;;;;1.17;1.03;;;17.50;64.40;;;;;;5009805;28;44010;-80
2022/04/08 01:16:36;;;;;;;0.87;0.87;;;17.60;64.00;;;;;;5010201;28;43895;-80
2022/04/08 01:19:04;;;;;;;0.80;0.80;;;17.80;63.50;;;;;;5009760;28;43608;-80
2022/04/08 01:21:34;;;;;;;0.77;0.77;;;17.80;63.20;;;;;;4991790;28;44787;-80
2022/04/08 01:24:03;;;;;;;1.13;1.13;;;17.80;63.10;;;;;;5010046;28;44402;-80
2022/04/08 01:26:32;;;;;;;1.00;1.00;;;17.70;63.00;;;;;;5009229;28;43977;-80
2022/04/08 01:29:01;;;;;;;0.97;0.97;;;17.60;63.10;;;;;;4990829;28;46113;-80
2022/04/08 01:31:29;;;;;;;1.00;1.00;;;17.60;63.40;;;;;;5008449;28;44087;-80
2022/04/08 01:33:57;;;;;;;0.90;0.90;;;17.50;63.60;;;;;;5008510;28;43950;-80
2022/04/08 01:36:25;;;;;;;0.90;0.90;;;17.40;63.70;;;;;;5008774;28;44030;-80
2022/04/08 01:38:53;;;;;;;1.00;1.00;;;17.40;63.80;;;;;;5008251;28;45170;-80
2022/04/08 01:41:21;;;;;;;1.17;1.17;;;17.40;64.00;;;;;;5008401;28;43954;-80
2022/04/08 01:43:54;;;;;;;1.03;1.03;;;17.40;64.00;;;;;;5008475;28;44029;-80
2022/04/08 01:46:22;;;;;;;0.87;0.87;;;17.30;64.00;;;;;;5008676;28;43428;-80
2022/04/08 01:48:53;;;;;;;1.07;1.07;;;17.30;64.30;;;;;;5008167;28;43688;-80
2022/04/08 01:51:20;;;;;;;1.10;0.97;;;17.40;64.50;;;;;;5008201;28;43981;-80
2022/04/08 01:53:48;;;;;;;1.00;1.00;;;17.50;64.80;;;;;;4986991;28;43411;-80
2022/04/08 01:56:16;;;;;;;1.00;1.00;;;17.70;63.60;;;;;;4986562;28;43541;-80
2022/04/08 01:58:44;;;;;;;0.90;0.90;;;17.90;63.00;;;;;;5007509;28;43910;-80
2022/04/08 02:01:14;;;;;;;0.83;0.83;;;18.10;62.70;;;;;;4990206;28;45653;-80
2022/04/08 02:03:42;;;;;;;1.10;1.10;;;18.10;63.20;;;;;;5008224;28;43961;-80
2022/04/08 02:06:10;;;;;;;1.17;1.17;;;18.00;62.50;;;;;;5007960;28;44195;-80
2022/04/08 02:08:39;;;;;;;0.80;0.80;;;17.90;62.50;;;;;;5007934;28;43972;-80
2022/04/08 02:11:06;;;;;;;1.00;1.00;;;17.80;62.60;;;;;;5007928;28;43934;-80
2022/04/08 02:13:34;;;;;;;1.00;1.00;;;17.70;62.80;;;;;;5007744;28;44015;-80
2022/04/08 02:16:03;;;;;;;1.00;1.00;;;17.60;63.10;;;;;;4990286;28;43396;-80
2022/04/08 02:18:33;;;;;;;1.20;1.20;;;17.50;63.20;;;;;;5007867;28;44716;-80
2022/04/08 02:21:01;;;;;;;1.00;1.00;;;17.50;63.50;;;;;;5001240;28;43539;-80
2022/04/08 02:23:29;;;;;;;0.90;0.90;;;17.50;63.70;;;;;;5001426;28;43982;-80
2022/04/08 02:25:57;;;;;;;1.03;1.03;;;17.40;63.70;;;;;;4963658;28;1095300;-80
2022/04/08 02:28:25;;;;;;;1.10;1.10;;;17.40;64.30;;;;;;5002017;28;44047;-80
2022/04/08 02:30:54;;;;;;;1.30;1.00;;;17.50;64.20;;;;;;5002183;28;43967;-80
2022/04/08 02:33:22;;;;;;;0.93;0.93;;;17.70;63.70;;;;;;4990864;28;44013;-79
2022/04/08 02:35:52;;;;;;;1.07;1.07;;;17.80;63.40;;;;;;5002638;28;43858;-80
2022/04/08 02:38:19;;;;;;;1.03;1.03;;;17.70;63.10;;;;;;5002452;28;43934;-80
2022/04/08 02:40:47;;;;;;;0.70;0.70;;;17.70;63.00;;;;;;5008470;28;43465;-80
2022/04/08 02:43:15;;;;;;;0.80;0.80;;;17.60;63.00;;;;;;5008570;28;43981;-80
2022/04/08 02:45:44;;;;;;;1.10;1.10;;;17.60;63.30;;;;;;5008593;28;43453;-80
2022/04/08 02:48:18;;;;;;;0.90;0.90;;;17.50;63.50;;;;;;5008825;28;43952;-80
2022/04/08 02:50:47;;;;;;;1.00;1.00;;;17.40;63.60;;;;;;4990188;28;44670;-79
2022/04/08 02:53:16;;;;;;;1.23;1.23;;;17.40;63.70;;;;;;5008449;28;44016;-80
2022/04/08 02:55:44;;;;;;;1.10;1.10;;;17.40;63.80;;;;;;4990483;28;44074;-80
2022/04/08 02:58:12;;;;;;;0.90;0.90;;;17.40;64.00;;;;;;5008274;28;43806;-80
2022/04/08 03:00:40;;;;;;;0.90;0.90;;;17.30;63.90;;;;;;4990183;28;44846;-79
2022/04/08 03:03:08;;;;;;;0.93;0.93;;;17.30;64.00;;;;;;5008117;28;43919;-80
2022/04/08 03:05:36;;;;;;;0.80;0.80;;;17.30;64.20;;;;;;5008521;28;43900;-80
2022/04/08 03:08:05;;;;;;;2.97;1.30;;;17.40;64.30;;;;;;5008400;28;44396;-80
2022/04/08 03:10:34;;;;;;;0.83;0.83;;;17.50;63.90;;;;;;5007958;28;44032;-80
2022/04/08 03:13:02;;;;;;;1.10;0.93;;;17.80;63.40;;;;;;5008446;28;43961;-80
2022/04/08 03:15:30;;;;;;;1.10;1.10;;;18.00;62.90;;;;;;4990729;28;43958;-80
2022/04/08 03:17:58;;;;;;;1.03;1.03;;;18.00;62.40;;;;;;5007711;28;43784;-80
2022/04/08 03:20:26;;;;;;;0.90;0.90;;;18.00;62.30;;;;;;5007631;28;44017;-80
2022/04/08 03:22:54;;;;;;;0.90;0.87;;;18.00;62.30;;;;;;5008112;28;43922;-81
2022/04/08 03:25:22;;;;;;;0.97;0.97;;;17.80;62.30;;;;;;5006721;28;44005;-81
2022/04/08 03:27:51;;;;;;;0.90;0.90;;;17.70;62.60;;;;;;4989763;28;43992;-81
2022/04/08 03:30:19;;;;;;;0.93;0.93;;;17.60;62.90;;;;;;5007840;28;44013;-80
2022/04/08 03:32:47;;;;;;;2.40;0.90;;;17.60;63.20;;;;;;5007828;28;43437;-80
2022/04/08 03:35:15;;;;;;;1.00;1.00;;;17.50;63.40;;;;;;5007997;28;43366;-78
2022/04/08 03:37:43;;;;;;;1.53;1.10;;;17.50;63.60;;;;;;4989676;28;46011;-79
2022/04/08 03:40:12;;;;;;;1.90;0.97;;;17.40;63.60;;;;;;5007269;28;43907;-78
2022/04/08 03:42:40;;;;;;;1.10;1.10;;;17.40;63.70;;;;;;4990071;28;44014;-77
2022/04/08 03:45:10;;;;;;;1.27;1.27;;;17.40;64.20;;;;;;5008082;28;44110;-79
2022/04/08 03:47:38;;;;;;;1.20;1.20;;;17.50;64.00;;;;;;5007478;28;43938;-79
2022/04/08 03:50:07;;;;;;;1.00;1.00;;;17.60;63.50;;;;;;5007141;28;44018;-78
2022/04/08 03:52:35;;;;;;;1.00;1.00;;;17.70;63.20;;;;;;5007826;28;44010;-78
2022/04/08 03:55:03;;;;;;;1.63;1.00;;;17.70;63.00;;;;;;4989813;28;44236;-78
2022/04/08 03:57:31;;;;;;;0.90;0.90;;;17.70;63.00;;;;;;4989440;28;46059;-78
2022/04/08 03:59:59;;;;;;;0.83;0.83;;;17.60;63.00;;;;;;4989302;28;45272;-78
2022/04/08 04:02:28;;;;;;;0.90;0.90;;;17.50;63.20;;;;;;4989400;28;43958;-78
2022/04/08 04:04:59;;;;;;;1.00;1.00;;;17.50;63.40;;;;;;5007337;28;43946;-78
2022/04/08 04:07:27;;;;;;;1.00;1.00;;;17.40;63.50;;;;;;5007136;28;43762;-80
2022/04/08 04:09:55;;;;;;;1.07;1.07;;;17.40;63.70;;;;;;5006940;28;43967;-77
2022/04/08 04:12:23;;;;;;;0.97;0.97;;;17.40;63.70;;;;;;5007017;28;43935;-77
2022/04/08 04:14:51;;;;;;;0.90;0.90;;;17.40;63.90;;;;;;5007308;28;44034;-77
2022/04/08 04:17:19;;;;;;;0.97;0.97;;;17.30;63.80;;;;;;5006943;28;43978;-76
2022/04/08 04:19:48;;;;;;;1.07;1.07;;;17.30;63.90;;;;;;4988737;28;45934;-75
2022/04/08 04:22:17;;;;;;;1.20;1.20;;;17.30;64.30;;;;;;4989250;28;43883;-76
2022/04/08 04:24:45;;;;;;;1.20;1.20;;;17.40;64.20;;;;;;5007838;28;43391;-78
2022/04/08 04:27:13;;;;;;;1.07;1.07;;;17.60;63.90;;;;;;4988496;28;45718;-78
2022/04/08 04:29:41;;;;;;;1.10;1.10;;;17.80;63.20;;;;;;4988947;28;44705;-78
2022/04/08 04:32:09;;;;;;;0.77;0.77;;;18.00;62.70;;;;;;5006678;28;44110;-78
2022/04/08 04:34:38;;;;;;;1.10;1.10;;;18.10;62.40;;;;;;4989179;28;43950;-78
2022/04/08 04:37:08;;;;;;;1.20;1.10;;;18.10;62.20;;;;;;5006667;28;43608;-78
2022/04/08 04:39:37;;;;;;;1.23;1.13;;;18.00;62.20;;;;;;4989521;28;44617;-80
2022/04/08 04:42:07;;;;;;;0.90;0.90;;;17.90;62.10;;;;;;5007479;28;43963;-79
2022/04/08 04:44:35;;;;;;;0.80;0.80;;;17.80;62.20;;;;;;5007848;28;44159;-79
2022/04/08 04:47:03;;;;;;;0.90;0.90;;;17.70;62.60;;;;;;5007117;28;44398;-79
2022/04/08 04:49:31;;;;;;;0.93;0.93;;;17.60;62.80;;;;;;5007449;28;44162;-79
2022/04/08 04:51:59;;;;;;;1.00;1.00;;;17.50;62.80;;;;;;4985985;28;43931;-81
2022/04/08 04:54:28;;;;;;;1.07;1.00;;;17.50;62.90;;;;;;4987566;28;43522;-79
2022/04/08 04:56:56;;;;;;;1.23;1.20;;;17.40;63.10;;;;;;4988003;28;46556;-79
2022/04/08 04:59:24;;;;;;;1.10;1.00;;;17.40;63.40;;;;;;4988999;28;46047;-79
2022/04/08 05:01:54;;;;;;;0.90;0.90;;;17.40;63.90;;;;;;5006882;28;43411;-79
2022/04/08 05:04:22;;;;;;;1.10;1.10;;;17.50;63.60;;;;;;4989539;28;44216;-79
2022/04/08 05:06:50;;;;;;;1.60;1.00;;;17.70;63.30;;;;;;5007181;28;44724;-79
2022/04/08 05:09:19;;;;;;;2.83;0.83;;;17.70;62.90;;;;;;5006703;28;44016;-79
2022/04/08 05:11:48;;;;;;;0.80;0.80;;;17.70;62.80;;;;;;4988253;28;44092;-79
2022/04/08 05:14:17;;;;;;;1.20;1.20;;;17.70;62.70;;;;;;5007929;28;43895;-78
2022/04/08 05:16:45;;;;;;;0.90;0.90;;;17.60;62.70;;;;;;4988425;28;45924;-79
2022/04/08 05:19:13;;;;;;;1.00;1.00;;;17.60;63.00;;;;;;4988175;28;45273;-79
2022/04/08 05:21:41;;;;;;;1.07;1.07;;;17.50;63.10;;;;;;5006252;28;43962;-79
2022/04/08 05:24:09;;;;;;;1.10;1.10;;;17.40;63.20;;;;;;5006951;28;43947;-78
2022/04/08 05:26:37;;;;;;;1.10;1.10;;;17.40;63.40;;;;;;4987658;28;46354;-79
2022/04/08 05:29:06;;;;;;;1.00;1.00;;;17.40;63.50;;;;;;5006303;28;44133;-79
2022/04/08 05:31:34;;;;;;;1.10;1.10;;;17.40;63.70;;;;;;5006705;28;43302;-79
2022/04/08 05:34:02;;;;;;;1.00;1.00;;;17.30;63.60;;;;;;5006810;28;44005;-78
2022/04/08 05:36:30;;;;;;;1.10;1.10;;;17.30;63.70;;;;;;5006376;28;44524;-78
2022/04/08 05:38:58;;;;;;;1.27;1.03;;;17.30;64.10;;;;;;5006098;28;43915;-78
2022/04/08 05:41:26;;;;;;;0.93;0.93;;;17.40;64.00;;;;;;5006181;28;44090;-78
2022/04/08 05:43:54;;;;;;;1.27;1.10;;;17.60;63.50;;;;;;5006639;28;43447;-78
2022/04/08 05:46:23;;;;;;;1.00;1.00;;;17.80;63.00;;;;;;5005860;28;45282;-78
2022/04/08 05:48:51;;;;;;;1.10;1.00;;;18.00;62.70;;;;;;4980669;28;44658;-79
2022/04/08 05:51:19;;;;;;;1.07;1.07;;;18.00;62.30;;;;;;5009080;28;43940;-78
2022/04/08 05:54:06;;;;;;;1.00;1.00;;;18.00;62.20;;;;;;5009858;28;43373;-79
2022/04/08 05:56:34;;;;;;;1.00;1.00;;;17.90;62.20;;;;;;5009710;28;44102;-78
2022/04/08 05:59:02;;;;;;;1.00;1.00;;;17.80;62.20;;;;;;5009471;28;44123;-78
2022/04/08 06:01:32;;;;;;;0.90;0.90;;;17.70;62.50;;;;;;4992514;28;44447;-78
2022/04/08 06:04:00;;;;;;;1.10;1.10;;;17.60;62.80;;;;;;4991436;28;44216;-78
2022/04/08 06:06:27;;;;;;;1.20;1.20;;;17.60;63.10;;;;;;5009242;28;43995;-78
2022/04/08 06:09:01;;;;;;;0.97;0.97;;;17.50;63.20;;;;;;5009139;28;44134;-78
2022/04/08 06:11:29;;;;;;;0.83;0.83;;;17.40;63.30;;;;;;5009488;28;43979;-78
2022/04/08 06:13:57;;;;;;;0.80;0.80;;;17.40;63.40;;;;;;5009550;28;43382;-78
2022/04/08 06:16:25;;;;;;;1.20;1.20;;;17.40;63.70;;;;;;5009000;28;43958;-78
2022/04/08 06:18:55;;;;;;;1.10;1.10;;;17.40;64.10;;;;;;4990837;28;43930;-78
2022/04/08 06:21:23;;;;;;;0.97;0.97;;;17.50;63.80;;;;;;5008993;28;43767;-78
2022/04/08 06:23:51;;;;;;;1.20;1.10;;;17.70;63.40;;;;;;4991449;28;44119;-78
2022/04/08 06:26:19;;;;;;;1.13;1.13;;;17.70;63.00;;;;;;5008405;28;44054;-78
2022/04/08 06:28:47;;;;;;;0.97;0.97;;;17.70;62.90;;;;;;5008683;28;44269;-78
2022/04/08 06:31:15;;;;;;;1.10;1.10;;;17.70;62.80;;;;;;4990736;28;43866;-78
2022/04/08 06:33:45;;;;;;;1.07;1.07;;;17.60;62.90;;;;;;5009139;28;44029;-78
2022/04/08 06:36:14;;;;;;;1.00;1.00;;;17.50;63.10;;;;;;5008863;28;45114;-78
2022/04/08 06:38:42;;;;;;;0.90;0.90;;;17.40;63.30;;;;;;5008676;28;43997;-78
2022/04/08 06:41:10;;;;;;;1.60;1.20;;;17.40;63.50;;;;;;4987442;28;44051;-78
2022/04/08 06:43:38;;;;;;;1.43;1.33;;;17.40;63.70;;;;;;5006731;28;43780;-78
2022/04/08 06:46:06;;;;;;;1.00;1.00;;;17.40;63.80;;;;;;5008194;28;43829;-78
2022/04/08 06:48:34;;;;;;;1.30;1.30;;;17.30;63.80;;;;;;5008709;28;44132;-78
2022/04/08 06:51:04;;;;;;;1.00;1.00;;;17.30;63.80;;;;;;4990811;28;43982;-79
2022/04/08 06:53:33;;;;;;;0.93;0.93;;;17.30;63.90;;;;;;4991202;28;44074;-77
2022/04/08 06:56:02;;;;;;;1.07;1.07;;;17.30;64.20;;;;;;5008579;28;44010;-79
2022/04/08 06:58:30;;;;;;;1.17;1.10;;;17.40;64.30;;;;;;5007715;28;43909;-79
2022/04/08 07:00:58;;;;;;;1.00;1.00;;;17.50;63.80;;;;;;4989455;28;43444;-80
2022/04/08 07:03:26;;;;;;;0.97;0.97;;;17.70;63.30;;;;;;4991132;28;44132;-78
2022/04/08 07:05:54;;;;;;;1.07;1.07;;;17.90;62.70;;;;;;5008335;28;44211;-78
2022/04/08 07:08:22;;;;;;;0.90;0.90;;;18.00;62.30;;;;;;5008184;28;43806;-78
2022/04/08 07:10:52;;;;;;;1.10;1.10;;;18.00;62.30;;;;;;4990371;28;43923;-79
2022/04/08 07:13:20;;;;;;;1.00;1.00;;;17.90;62.20;;;;;;5008535;28;43883;-78
2022/04/08 07:15:47;;;;;;;1.00;1.00;;;17.80;62.20;;;;;;5009489;28;44026;-78
2022/04/08 07:18:16;;;;;;;1.00;1.00;;;17.70;62.40;;;;;;5008221;28;43958;-78
2022/04/08 07:20:44;;;;;;;1.20;1.20;;;17.60;62.70;;;;;;5008688;28;43961;-79
2022/04/08 07:23:11;;;;;;;1.10;1.10;;;17.60;63.10;;;;;;5008385;28;43977;-79
2022/04/08 07:25:39;;;;;;;1.10;1.10;;;17.50;63.20;;;;;;4989220;28;45762;-78
2022/04/08 07:28:09;;;;;;;1.20;1.10;;;17.50;63.50;;;;;;5007859;28;43847;-79
2022/04/08 07:30:37;;;;;;;1.43;0.90;;;17.40;63.50;;;;;;5007787;28;43833;-79
2022/04/08 07:33:05;;;;;;;1.20;1.20;;;17.40;63.70;;;;;;4990252;28;44043;-80
2022/04/08 07:35:33;;;;;;;1.00;1.00;;;17.40;64.10;;;;;;5007580;28;45548;-78
2022/04/08 07:38:03;;;;;;;1.07;1.07;;;17.50;64.00;;;;;;5007612;28;44042;-77
2022/04/08 07:40:31;;;;;;;0.87;0.87;;;17.60;63.40;;;;;;5007324;28;44085;-79
2022/04/08 07:42:59;;;;;;;0.90;0.90;;;17.70;63.20;;;;;;4989851;28;43974;-79
2022/04/08 07:45:29;;;;;;;1.00;1.00;;;17.70;63.00;;;;;;5007660;28;45064;-79
2022/04/08 07:47:58;;;;;;;1.00;1.00;;;17.60;62.90;;;;;;4989468;28;44155;-79
2022/04/08 07:50:27;;;;;;;1.10;1.10;;;17.60;63.10;;;;;;5007576;28;44050;-79
2022/04/08 07:52:55;;;;;;;1.00;1.00;;;17.50;63.20;;;;;;4989668;28;44056;-78
2022/04/08 07:55:24;;;;;;;1.00;1.00;;;17.40;63.40;;;;;;5007415;28;45149;-79
2022/04/08 07:57:52;;;;;;;1.17;1.17;;;17.40;63.60;;;;;;5007230;28;44474;-79
2022/04/08 08:00:21;;;;;;;2.10;1.17;;;17.40;63.70;;;;;;5007164;28;43431;-78
2022/04/08 08:02:51;;;;;;;1.03;1.03;;;17.30;63.80;;;;;;4970410;28;43888;-79
2022/04/08 08:05:20;;;;;;;1.97;1.87;;;17.30;63.90;;;;;;5001102;28;44214;-79
2022/04/08 08:07:50;;;;;;;1.70;1.60;;;17.30;64.00;;;;;;4988972;28;44732;-78
2022/04/08 08:10:19;;;;;;;1.30;1.30;;;17.20;64.00;;;;;;5008936;28;44084;-79
2022/04/08 08:12:47;;;;;;;1.77;1.67;;;17.30;64.50;;;;;;4989732;28;44023;-80
2022/04/08 08:15:15;;;;;;;1.70;1.60;;;17.40;64.40;;;;;;5007595;28;43831;-80
2022/04/08 08:17:43;;;;;;;1.97;1.87;;;17.60;63.80;;;;;;5007016;28;43902;-80
2022/04/08 08:20:14;;;;;;;2.33;1.90;;;17.70;63.20;;;;;;5007330;28;43976;-80
2022/04/08 08:22:42;;;;;;;3.77;2.20;;;17.90;62.80;;;;;;4989694;28;43496;-80
2022/04/08 08:25:11;;;;;;;2.30;2.10;;;18.00;62.60;;;;;;4988632;28;45956;-80
2022/04/08 08:27:39;;;;;;;2.23;1.80;;;17.90;62.40;;;;;;5006893;28;43965;-80
2022/04/08 08:30:10;;;;;;;1.77;1.67;;;17.80;62.40;;;;;;4989069;28;44011;-80
2022/04/08 08:32:38;;;;;;;2.17;1.93;;;17.80;62.40;;;;;;4989460;28;43461;-80
2022/04/08 08:35:07;;;;;;;3.27;2.10;;;17.60;62.60;;;;;;5006654;28;44206;-79
2022/04/08 08:37:37;;;;;;;1.80;1.70;;;17.60;62.90;;;;;;5006635;28;44057;-80
2022/04/08 08:40:05;;;;;;;2.10;2.00;;;17.50;63.10;;;;;;4989327;28;43985;-80
2022/04/08 08:42:33;;;;;;;2.47;2.27;;;17.40;63.30;;;;;;5007946;28;44291;-80
2022/04/08 08:45:01;;;;;;;2.97;2.20;;;17.40;64.20;;;;;;5006832;28;44044;-80
2022/04/08 08:47:30;;;;;;;3.30;2.20;;;17.40;63.60;;;;;;4988954;28;44927;-80
2022/04/08 08:49:58;;;;;;;2.47;2.10;;;17.30;64.00;;;;;;5006794;28;43911;-80
2022/04/08 08:52:26;;;;;;;4.77;2.23;;;17.40;64.20;;;;;;4989213;28;44085;-80
2022/04/08 08:54:58;;;;;;;2.60;2.30;;;17.50;63.80;;;;;;4988535;28;45743;-80
2022/04/08 08:57:27;;;;;;;2.13;2.00;;;17.60;63.20;;;;;;5006525;28;44038;-80
2022/04/08 09:00:06;;;;;;;2.53;2.33;;;17.70;63.20;;;;;;5006522;28;44002;-80
2022/04/08 09:02:35;;;;;;;3.33;2.43;;;17.60;62.90;;;;;;5007125;28;43424;-80
2022/04/08 09:05:12;;;;;;;2.77;2.47;;;17.60;62.90;;;;;;4988479;28;46874;-79
2022/04/08 09:07:40;;;;;;;2.30;2.20;;;17.50;63.10;;;;;;5006573;28;43857;-80
2022/04/08 09:10:10;;;;;;;2.70;2.50;;;17.40;63.30;;;;;;5006641;28;44007;-80
2022/04/08 09:12:38;;;;;;;3.07;2.50;;;17.40;64.30;;;;;;5006933;28;44027;-80
2022/04/08 09:15:09;;;;;;;2.60;2.40;;;17.30;63.60;;;;;;5006190;28;43791;-79
2022/04/08 09:17:37;;;;;;;3.57;2.53;;;17.30;63.70;;;;;;5006315;28;43981;-79
2022/04/08 09:20:06;;;;;;;3.10;2.80;;;17.30;63.80;;;;;;4999635;28;43931;-79
2022/04/08 09:22:36;;;;;;;2.73;2.53;;;17.30;63.90;;;;;;5001568;28;43933;-80
2022/04/08 09:25:09;;;;;;;2.50;2.30;;;17.20;63.90;;;;;;4985397;28;45694;-80
2022/04/08 09:27:37;;;;;;;2.40;2.20;;;17.20;64.00;;;;;;4991952;28;45095;-80
2022/04/08 09:30:07;;;;;;;2.17;1.90;;;17.30;64.40;;;;;;5009731;28;43420;-80
2022/04/08 09:32:35;;;;;;;3.67;2.47;;;17.40;64.20;;;;;;5010339;28;43404;-80
2022/04/08 09:35:07;;;;;;;2.30;2.20;;;17.60;63.50;;;;;;5009492;28;45413;-80
2022/04/08 09:37:41;;;;;;;2.40;2.20;;;17.80;63.00;;;;;;5009669;28;43888;-79
2022/04/08 09:40:12;;;;;;;2.43;2.23;;;17.90;62.50;;;;;;5009973;28;44007;-79
2022/04/08 09:42:44;;;;;;;2.87;2.63;;;17.90;62.40;;;;;;5010472;28;43926;-80
2022/04/08 09:45:13;;;;;;;2.47;2.27;;;17.90;62.30;;;;;;4988543;28;45845;-77
2022/04/08 09:47:41;;;;;;;2.83;2.53;;;17.80;62.20;;;;;;5007635;28;43938;-79
2022/04/08 09:50:10;;;;;;;2.60;2.33;;;17.70;62.30;;;;;;5010067;28;43970;-80
2022/04/08 09:52:38;;;;;;;3.60;2.60;;;17.60;62.50;;;;;;4991952;28;43612;-79
2022/04/08 09:55:07;;;;;;;2.87;2.50;;;17.50;62.90;;;;;;5009206;28;43966;-80
2022/04/08 09:57:39;;;;;;;2.67;2.30;;;17.40;63.00;;;;;;4991277;28;45119;-80
2022/04/08 10:00:08;;;;;;;2.63;2.43;;;17.40;63.20;;;;;;5009516;28;44051;-80
2022/04/08 10:02:40;;;;;;;2.73;2.30;;;17.40;63.30;;;;;;5009811;28;43969;-80
2022/04/08 10:05:09;;;;;;;2.60;2.40;;;17.40;63.70;;;;;;5009323;28;43797;-81
2022/04/08 10:07:37;;;;;;;2.57;2.40;;;17.30;64.10;;;;;;4991740;28;45341;-77
2022/04/08 10:10:18;;;;;;;2.33;2.13;;;17.40;63.90;;;;;;5003644;28;44024;-78
2022/04/08 10:12:59;;;;;;;2.13;2.03;;;17.60;63.50;;;;;;5004404;28;44056;-81
2022/04/08 10:15:30;;;;;;;2.20;2.10;;;17.70;63.10;;;;;;5009175;28;44743;-78
2022/04/08 10:17:58;;;;;;;2.27;2.17;;;17.60;62.90;;;;;;4991348;28;44782;-79
2022/04/08 10:20:28;;;;;;;2.47;2.27;;;17.60;62.90;;;;;;4991592;28;43385;-81
2022/04/08 10:23:04;;;;;;;2.10;2.00;;;17.50;62.90;;;;;;5009157;28;43533;-79
2022/04/08 10:25:37;;;;;;;2.30;2.10;;;17.40;63.10;;;;;;4993349;28;44504;-80
2022/04/08 10:28:07;;;;;;;2.30;2.20;;;17.40;63.40;;;;;;5009425;28;43960;-79
2022/04/08 10:30:35;;;;;;;3.10;2.30;;;17.30;63.30;;;;;;5009516;28;43915;-79
2022/04/08 10:33:04;;;;;;;1.90;1.80;;;17.30;63.50;;;;;;5009146;28;43822;-79
2022/04/08 10:35:32;;;;;;;2.20;2.10;;;17.30;63.70;;;;;;5008676;28;45127;-79
2022/04/08 10:38:01;;;;;;;2.03;1.93;;;17.30;63.80;;;;;;5009104;28;45274;-78
2022/04/08 10:40:30;;;;;;;2.10;2.00;;;17.30;63.80;;;;;;5009607;28;43388;-79
2022/04/08 10:42:59;;;;;;;2.03;1.93;;;17.30;63.90;;;;;;5007730;28;43977;-81
2022/04/08 10:45:29;;;;;;;2.30;2.10;;;17.20;64.20;;;;;;5007745;28;46495;-80
2022/04/08 10:48:01;;;;;;;2.70;2.07;;;17.40;64.10;;;;;;5007879;28;44092;-79
2022/04/08 10:50:30;;;;;;;2.20;2.10;;;17.50;63.60;;;;;;5002545;28;43948;-81
2022/04/08 10:53:05;;;;;;;2.00;1.90;;;17.70;63.00;;;;;;5002002;28;44041;-79
2022/04/08 10:55:33;;;;;;;2.40;2.20;;;17.90;62.80;;;;;;5008877;28;44147;-80
2022/04/08 10:58:01;;;;;;;3.27;1.80;;;17.90;62.50;;;;;;5009268;28;44296;-80
2022/04/08 11:00:39;;;;;;;2.10;2.00;;;17.80;62.30;;;;;;5009006;28;43866;-80
2022/04/08 11:03:08;;;;;;;2.23;2.00;;;17.70;62.30;;;;;;5008850;28;44044;-79
2022/04/08 11:05:38;;;;;;;2.23;2.03;;;17.70;62.60;;;;;;5008449;28;44246;-79
2022/04/08 11:08:06;;;;;;;2.10;1.87;;;17.50;62.80;;;;;;5008596;28;43939;-79
2022/04/08 11:10:34;;;;;;;1.90;1.80;;;17.50;63.00;;;;;;5007065;28;43990;-79
2022/04/08 11:13:02;;;;;;;1.93;1.83;;;17.40;63.20;;;;;;5010636;28;43976;-79
2022/04/08 11:15:32;;;;;;;1.97;1.87;;;17.40;63.30;;;;;;5008305;28;45497;-79
2022/04/08 11:18:00;;;;;;;2.23;2.13;;;17.30;63.40;;;;;;5006623;28;44563;-79
2022/04/08 11:20:28;;;;;;;2.13;2.03;;;17.30;63.60;;;;;;5008164;28;43962;-79
2022/04/08 11:22:58;;;;;;;2.03;1.93;;;17.30;64.00;;;;;;5006987;28;43977;-79
2022/04/08 11:25:27;;;;;;;2.03;1.90;;;17.40;64.20;;;;;;5006034;28;44086;-79
2022/04/08 11:27:59;;;;;;;1.83;1.80;;;17.50;63.70;;;;;;5008109;28;43962;-79
2022/04/08 11:30:27;;;;;;;1.73;1.70;;;17.70;63.00;;;;;;5008159;28;43392;-79
2022/04/08 11:32:56;;;;;;;2.10;2.00;;;17.80;62.60;;;;;;5008368;28;43775;-79
2022/04/08 11:35:27;;;;;;;1.70;1.70;;;17.90;62.50;;;;;;5005920;28;46011;-79
2022/04/08 11:37:55;;;;;;;2.00;1.90;;;17.80;62.50;;;;;;5007878;28;44002;-78
2022/04/08 11:40:23;;;;;;;1.63;1.57;;;17.70;62.40;;;;;;5007987;28;43984;-79
2022/04/08 11:42:51;;;;;;;1.70;1.70;;;17.60;62.60;;;;;;5006833;28;43987;-78
2022/04/08 11:45:19;;;;;;;1.80;1.70;;;17.50;62.90;;;;;;5006874;28;44011;-80
2022/04/08 11:47:48;;;;;;;1.47;1.47;;;17.40;63.00;;;;;;5007774;28;44067;-80
2022/04/08 11:50:25;;;;;;;1.77;1.73;;;17.40;63.30;;;;;;5005892;28;43898;-80
2022/04/08 11:52:54;;;;;;;1.67;1.63;;;17.30;63.40;;;;;;5008164;28;44141;-81
2022/04/08 11:55:25;;;;;;;2.00;1.60;;;17.30;63.50;;;;;;5001194;28;45207;-78
2022/04/08 11:57:54;;;;;;;1.70;1.60;;;17.30;63.60;;;;;;5009013;28;44265;-78
2022/04/08 12:00:26;;;;;;;2.00;1.90;;;17.30;63.80;;;;;;5006105;28;44028;-77
2022/04/08 12:02:54;;;;;;;1.50;1.50;;;17.30;63.90;;;;;;5007600;28;43420;-80
2022/04/08 12:05:27;;;;;;;2.00;1.90;;;17.40;63.40;;;;;;5005316;28;45681;-77
2022/04/08 12:08:05;;;;;;;1.67;1.60;;;17.50;62.80;;;;;;5005816;28;44545;-77
2022/04/08 12:10:33;;;;;;;1.57;1.57;;;17.60;62.80;;;;;;5005568;28;44060;-77
2022/04/08 12:13:01;;;;;;;1.77;1.40;;;17.50;62.60;;;;;;5007992;28;43393;-78
2022/04/08 12:15:29;;;;;;;1.50;1.50;;;17.50;62.70;;;;;;5006948;28;44915;-77
2022/04/08 12:17:59;;;;;;;1.60;1.60;;;17.40;62.80;;;;;;5006762;28;43964;-77
2022/04/08 12:20:28;;;;;;;1.40;1.40;;;17.40;63.00;;;;;;5004052;28;43893;-77
2022/04/08 12:22:56;;;;;;;1.60;1.50;;;17.40;63.30;;;;;;5005758;28;44186;-77
2022/04/08 12:25:24;;;;;;;1.73;1.60;;;17.30;63.30;;;;;;5003372;28;45166;-78
2022/04/08 12:27:53;;;;;;;1.30;1.30;;;17.30;63.50;;;;;;5003010;28;43941;-77
2022/04/08 12:30:36;;;;;;;1.60;1.60;;;17.20;63.50;;;;;;4969877;28;43382;-76
2022/04/08 12:33:04;;;;;;;1.60;1.60;;;17.20;63.60;;;;;;4970755;28;43855;-77
2022/04/08 12:35:34;;;;;;;1.47;1.40;;;17.20;63.70;;;;;;4987939;28;44008;-78
2022/04/08 12:38:04;;;;;;;3.30;1.60;;;17.20;62.90;;;;;;4987991;28;43952;-79
2022/04/08 12:40:32;;;;;;;1.90;1.47;;;17.20;62.50;;;;;;5006826;28;44046;-78
2022/04/08 12:43:01;;;;;;;2.10;1.90;;;17.30;62.30;;;;;;4994705;28;43981;-79
2022/04/08 12:45:29;;;;;;;1.33;1.30;;;17.50;62.20;;;;;;4969879;28;45632;-79
2022/04/08 12:47:57;;;;;;;3.83;1.40;;;17.70;61.70;;;;;;5006336;28;44010;-79
2022/04/08 12:50:28;;;;;;;1.60;1.50;;;17.80;61.40;;;;;;4973262;28;43852;-78
2022/04/08 12:52:57;;;;;;;2.40;1.33;;;17.80;61.30;;;;;;4982028;28;43923;-78
2022/04/08 12:55:25;;;;;;;1.30;1.30;;;17.80;61.20;;;;;;4987733;28;43982;-78
2022/04/08 12:57:53;;;;;;;1.60;1.50;;;17.70;61.40;;;;;;4979875;28;45260;-79